sensor_id;sensor_type;location;lat;lon;timestamp;pressure;altitude;pressure_sealevel;temperature;humidity
59767;BME280;46248;58.364;25.582;2023-02-28T00:01:22;101444.50;;;-0.36;100.00
59767;BME280;46248;58.364;25.582;2023-02-28T00:04:46;101441.88;;;-0.39;100.00
59767;BME280;46248;58.364;25.582;2023-02-28T00:08:24;101438.50;;;-0.34;100.00
59767;BME280;46248;58.364;25.582;2023-02-28T00:11:49;101428.19;;;-0.34;100.00
59767;BME280;46248;58.364;25.582;2023-02-28T00:15:14;101437.66;;;-0.31;100.00
59767;BME280;46248;58.364;25.582;2023-02-28T00:18:37;101437.66;;;-0.33;100.00
59767;BME280;46248;58.364;25.582;2023-02-28T00:22:01;101431.66;;;-0.32;100.00
59767;BME280;46248;58.364;25.582;2023-02-28T00:25:25;101431.66;;;-0.33;100.00
59767;BME280;46248;58.364;25.582;2023-02-28T00:28:51;101435.94;;;-0.31;100.00
59767;BME280;46248;58.364;25.582;2023-02-28T00:32:14;101446.25;;;-0.29;100.00
59767;BME280;46248;58.364;25.582;2023-02-28T00:35:38;101429.94;;;-0.31;100.00
59767;BME280;46248;58.364;25.582;2023-02-28T00:39:01;101442.03;;;-0.22;100.00
59767;BME280;46248;58.364;25.582;2023-02-28T00:42:24;101440.31;;;-0.22;100.00
59767;BME280;46248;58.364;25.582;2023-02-28T00:45:49;101435.16;;;-0.22;100.00
59767;BME280;46248;58.364;25.582;2023-02-28T00:49:16;101424.81;;;-0.28;100.00
59767;BME280;46248;58.364;25.582;2023-02-28T00:52:39;101426.59;;;-0.24;100.00
59767;BME280;46248;58.364;25.582;2023-02-28T00:56:03;101427.47;;;-0.17;100.00
59767;BME280;46248;58.364;25.582;2023-02-28T00:59:27;101411.16;;;-0.19;100.00
59767;BME280;46248;58.364;25.582;2023-02-28T01:02:52;101426.66;;;-0.10;100.00
59767;BME280;46248;58.364;25.582;2023-02-28T01:06:16;101417.22;;;-0.14;100.00
59767;BME280;46248;58.364;25.582;2023-02-28T01:09:39;101416.38;;;-0.10;100.00
59767;BME280;46248;58.364;25.582;2023-02-28T01:13:02;101421.56;;;-0.06;100.00
59767;BME280;46248;58.364;25.582;2023-02-28T01:16:27;101412.16;;;-0.02;100.00
59767;BME280;46248;58.364;25.582;2023-02-28T01:19:53;101399.28;;;0.01;100.00
59767;BME280;46248;58.364;25.582;2023-02-28T01:23:16;101398.44;;;0.01;100.00
59767;BME280;46248;58.364;25.582;2023-02-28T01:26:39;101402.72;;;0.02;100.00
59767;BME280;46248;58.364;25.582;2023-02-28T01:30:03;101389.88;;;0.03;100.00
59767;BME280;46248;58.364;25.582;2023-02-28T01:33:28;101385.56;;;0.02;100.00
59767;BME280;46248;58.364;25.582;2023-02-28T01:36:52;101377.81;;;0.02;100.00
59767;BME280;46248;58.364;25.582;2023-02-28T01:40:16;101364.97;;;0.04;100.00
59767;BME280;46248;58.364;25.582;2023-02-28T01:43:54;101344.34;;;-0.01;100.00
59767;BME280;46248;58.364;25.582;2023-02-28T01:47:17;101349.53;;;0.08;100.00
59767;BME280;46248;58.364;25.582;2023-02-28T01:50:44;101342.69;;;0.07;100.00
59767;BME280;46248;58.364;25.582;2023-02-28T01:54:16;101351.25;;;0.08;100.00
59767;BME280;46248;58.364;25.582;2023-02-28T01:57:47;101347.84;;;0.10;100.00
59767;BME280;46248;58.364;25.582;2023-02-28T02:01:12;101330.66;;;0.08;100.00
59767;BME280;46248;58.364;25.582;2023-02-28T02:04:48;101332.38;;;0.12;100.00
59767;BME280;46248;58.364;25.582;2023-02-28T02:08:16;101319.50;;;0.10;100.00
59767;BME280;46248;58.364;25.582;2023-02-28T02:11:45;101307.47;;;0.05;100.00
59767;BME280;46248;58.364;25.582;2023-02-28T02:15:15;101306.63;;;0.07;100.00
59767;BME280;46248;58.364;25.582;2023-02-28T02:18:43;101295.44;;;0.05;100.00
59767;BME280;46248;58.364;25.582;2023-02-28T02:22:28;101289.47;;;0.06;100.00
59767;BME280;46248;58.364;25.582;2023-02-28T02:26:08;101292.91;;;0.07;100.00
59767;BME280;46248;58.364;25.582;2023-02-28T02:29:52;101285.16;;;0.04;100.00
59767;BME280;46248;58.364;25.582;2023-02-28T02:33:42;101292.03;;;0.05;100.00
59767;BME280;46248;58.364;25.582;2023-02-28T02:37:24;101291.13;;;0.03;100.00
59767;BME280;46248;58.364;25.582;2023-02-28T02:40:56;101282.56;;;0.05;100.00
59767;BME280;46248;58.364;25.582;2023-02-28T02:44:24;101261.13;;;0.00;100.00
59767;BME280;46248;58.364;25.582;2023-02-28T02:47:50;101263.69;;;0.05;100.00
59767;BME280;46248;58.364;25.582;2023-02-28T02:51:16;101257.66;;;-0.01;100.00
59767;BME280;46248;58.364;25.582;2023-02-28T02:54:44;101255.97;;;0.02;100.00
59767;BME280;46248;58.364;25.582;2023-02-28T02:58:14;101247.38;;;-0.02;100.00
59767;BME280;46248;58.364;25.582;2023-02-28T03:01:41;101225.03;;;-0.11;100.00
59767;BME280;46248;58.364;25.582;2023-02-28T03:05:08;101237.94;;;0.02;100.00
59767;BME280;46248;58.364;25.582;2023-02-28T03:08:37;101242.22;;;0.06;100.00
59767;BME280;46248;58.364;25.582;2023-02-28T03:12:02;101214.75;;;-0.05;100.00
59767;BME280;46248;58.364;25.582;2023-02-28T03:15:34;101226.78;;;0.06;100.00
59767;BME280;46248;58.364;25.582;2023-02-28T03:19:23;101211.34;;;0.04;100.00
59767;BME280;46248;58.364;25.582;2023-02-28T03:22:54;101212.19;;;0.02;100.00
59767;BME280;46248;58.364;25.582;2023-02-28T03:26:26;101207.91;;;-0.03;100.00
59767;BME280;46248;58.364;25.582;2023-02-28T03:29:58;101193.28;;;-0.05;100.00
59767;BME280;46248;58.364;25.582;2023-02-28T03:33:29;101188.97;;;-0.14;100.00
59767;BME280;46248;58.364;25.582;2023-02-28T03:36:55;101190.69;;;-0.07;100.00
59767;BME280;46248;58.364;25.582;2023-02-28T03:40:27;101195.84;;;-0.10;100.00
59767;BME280;46248;58.364;25.582;2023-02-28T03:43:56;101194.13;;;-0.11;100.00
59767;BME280;46248;58.364;25.582;2023-02-28T03:47:25;101188.09;;;-0.16;100.00
59767;BME280;46248;58.364;25.582;2023-02-28T03:50:53;101194.09;;;-0.18;100.00
59767;BME280;46248;58.364;25.582;2023-02-28T03:54:20;101192.38;;;-0.22;100.00
59767;BME280;46248;58.364;25.582;2023-02-28T03:57:53;101184.66;;;-0.27;100.00
59767;BME280;46248;58.364;25.582;2023-02-28T04:01:22;101192.38;;;-0.22;100.00
59767;BME280;46248;58.364;25.582;2023-02-28T04:04:49;101200.97;;;-0.19;100.00
59767;BME280;46248;58.364;25.582;2023-02-28T04:08:12;101170.00;;;-0.39;100.00
59767;BME280;46248;58.364;25.582;2023-02-28T04:11:37;101204.41;;;-0.20;100.00
59767;BME280;46248;58.364;25.582;2023-02-28T04:15:00;101199.22;;;-0.21;100.00
59767;BME280;46248;58.364;25.582;2023-02-28T04:18:23;101204.38;;;-0.23;100.00
59767;BME280;46248;58.364;25.582;2023-02-28T04:21:49;101182.03;;;-0.35;100.00
59767;BME280;46248;58.364;25.582;2023-02-28T04:25:12;101189.78;;;-0.33;100.00
59767;BME280;46248;58.364;25.582;2023-02-28T04:28:37;101200.06;;;-0.29;100.00
59767;BME280;46248;58.364;25.582;2023-02-28T04:32:02;101194.94;;;-0.30;100.00
59767;BME280;46248;58.364;25.582;2023-02-28T04:35:26;101196.63;;;-0.32;100.00
59767;BME280;46248;58.364;25.582;2023-02-28T04:38:51;101177.75;;;-0.33;100.00
59767;BME280;46248;58.364;25.582;2023-02-28T04:42:15;101161.44;;;-0.36;100.00
59767;BME280;46248;58.364;25.582;2023-02-28T04:45:38;101164.84;;;-0.37;100.00
59767;BME280;46248;58.364;25.582;2023-02-28T04:49:01;101169.16;;;-0.32;100.00
59767;BME280;46248;58.364;25.582;2023-02-28T04:52:25;101139.13;;;-0.37;100.00
59767;BME280;46248;58.364;25.582;2023-02-28T04:55:51;101164.03;;;-0.29;100.00
59767;BME280;46248;58.364;25.582;2023-02-28T04:59:14;101158.03;;;-0.29;100.00
59767;BME280;46248;58.364;25.582;2023-02-28T05:02:38;101162.34;;;-0.30;100.00
59767;BME280;46248;58.364;25.582;2023-02-28T05:06:01;101154.59;;;-0.31;100.00
59767;BME280;46248;58.364;25.582;2023-02-28T05:09:24;101148.56;;;-0.35;100.00
59767;BME280;46248;58.364;25.582;2023-02-28T05:12:50;101142.56;;;-0.37;100.00
59767;BME280;46248;58.364;25.582;2023-02-28T05:16:14;101161.50;;;-0.27;100.00
59767;BME280;46248;58.364;25.582;2023-02-28T05:19:38;101160.59;;;-0.31;100.00
59767;BME280;46248;58.364;25.582;2023-02-28T05:23:01;101167.47;;;-0.30;100.00
59767;BME280;46248;58.364;25.582;2023-02-28T05:26:25;101164.88;;;-0.33;100.00
59767;BME280;46248;58.364;25.582;2023-02-28T05:29:50;101164.88;;;-0.33;100.00
59767;BME280;46248;58.364;25.582;2023-02-28T05:33:14;101170.91;;;-0.32;100.00
59767;BME280;46248;58.364;25.582;2023-02-28T05:36:38;101164.91;;;-0.30;100.00
59767;BME280;46248;58.364;25.582;2023-02-28T05:40:02;101170.03;;;-0.33;100.00
59767;BME280;46248;58.364;25.582;2023-02-28T05:43:28;101186.34;;;-0.28;100.00
59767;BME280;46248;58.364;25.582;2023-02-28T05:46:53;101175.19;;;-0.30;100.00
59767;BME280;46248;58.364;25.582;2023-02-28T05:50:16;101181.22;;;-0.23;100.00
59767;BME280;46248;58.364;25.582;2023-02-28T05:53:39;101179.50;;;-0.24;100.00
59767;BME280;46248;58.364;25.582;2023-02-28T05:57:02;101180.34;;;-0.22;100.00
59767;BME280;46248;58.364;25.582;2023-02-28T06:00:35;101168.34;;;-0.18;100.00
59767;BME280;46248;58.364;25.582;2023-02-28T06:04:05;101160.63;;;-0.15;100.00
59767;BME280;46248;58.364;25.582;2023-02-28T06:07:39;101160.66;;;-0.12;100.00
59767;BME280;46248;58.364;25.582;2023-02-28T06:11:04;101164.13;;;-0.06;100.00
59767;BME280;46248;58.364;25.582;2023-02-28T06:14:28;101161.56;;;-0.03;100.00
59767;BME280;46248;58.364;25.582;2023-02-28T06:17:52;101155.53;;;0.02;100.00
59767;BME280;46248;58.364;25.582;2023-02-28T06:21:19;101154.69;;;0.12;100.00
59767;BME280;46248;58.364;25.582;2023-02-28T06:24:42;101136.66;;;0.12;100.00
59767;BME280;46248;58.364;25.582;2023-02-28T06:28:05;101146.97;;;0.21;100.00
59767;BME280;46248;58.364;25.582;2023-02-28T06:31:30;101154.72;;;0.29;100.00
59767;BME280;46248;58.364;25.582;2023-02-28T06:34:54;101151.28;;;0.33;100.00
59767;BME280;46248;58.364;25.582;2023-02-28T06:38:19;101153.03;;;0.40;100.00
59767;BME280;46248;58.364;25.582;2023-02-28T06:41:43;101155.59;;;0.44;100.00
59767;BME280;46248;58.364;25.582;2023-02-28T06:45:15;101167.63;;;0.59;100.00
59767;BME280;46248;58.364;25.582;2023-02-28T06:48:38;101162.50;;;0.64;100.00
59767;BME280;46248;58.364;25.582;2023-02-28T06:52:01;101140.16;;;0.67;100.00
59767;BME280;46248;58.364;25.582;2023-02-28T06:55:26;101148.72;;;0.73;100.00
59767;BME280;46248;58.364;25.582;2023-02-28T06:58:50;101141.88;;;0.76;100.00
59767;BME280;46248;58.364;25.582;2023-02-28T07:02:15;101127.25;;;0.80;100.00
59767;BME280;46248;58.364;25.582;2023-02-28T07:05:39;101139.25;;;0.93;100.00
59767;BME280;46248;58.364;25.582;2023-02-28T07:09:02;101121.22;;;0.95;100.00
59767;BME280;46248;58.364;25.582;2023-02-28T07:12:27;101112.56;;;1.05;100.00
59767;BME280;46248;58.364;25.582;2023-02-28T07:15:54;101102.25;;;1.12;100.00
59767;BME280;46248;58.364;25.582;2023-02-28T07:19:17;101119.38;;;1.35;100.00
59767;BME280;46248;58.364;25.582;2023-02-28T07:22:40;101123.63;;;1.45;100.00
59767;BME280;46248;58.364;25.582;2023-02-28T07:26:09;101121.88;;;1.50;100.00
59767;BME280;46248;58.364;25.582;2023-02-28T07:29:36;101127.84;;;1.60;99.42
59767;BME280;46248;58.364;25.582;2023-02-28T07:32:59;101119.25;;;1.64;99.35
59767;BME280;46248;58.364;25.582;2023-02-28T07:36:23;101104.63;;;1.62;98.49
59767;BME280;46248;58.364;25.582;2023-02-28T07:39:46;101110.59;;;1.73;99.41
59767;BME280;46248;58.364;25.582;2023-02-28T07:43:10;101121.75;;;1.78;98.56
59767;BME280;46248;58.364;25.582;2023-02-28T07:46:35;101113.97;;;1.81;97.81
59767;BME280;46248;58.364;25.582;2023-02-28T07:49:59;101114.81;;;1.89;98.25
59767;BME280;46248;58.364;25.582;2023-02-28T07:53:22;101100.13;;;1.96;97.73
59767;BME280;46248;58.364;25.582;2023-02-28T07:56:45;101095.78;;;2.01;97.50
59767;BME280;46248;58.364;25.582;2023-02-28T08:00:10;101094.09;;;1.98;96.90
59767;BME280;46248;58.364;25.582;2023-02-28T08:03:35;101106.91;;;2.11;96.87
59767;BME280;46248;58.364;25.582;2023-02-28T08:06:58;101096.53;;;2.18;95.92
59767;BME280;46248;58.364;25.582;2023-02-28T08:10:22;101088.78;;;2.17;95.52
59767;BME280;46248;58.364;25.582;2023-02-28T08:13:46;101105.91;;;2.28;94.41
59767;BME280;46248;58.364;25.582;2023-02-28T08:17:09;101111.91;;;2.37;95.35
59767;BME280;46248;58.364;25.582;2023-02-28T08:20:35;101116.16;;;2.41;94.47
59767;BME280;46248;58.364;25.582;2023-02-28T08:23:59;101098.00;;;2.47;94.83
59767;BME280;46248;58.364;25.582;2023-02-28T08:27:22;101114.34;;;2.50;93.61
59767;BME280;46248;58.364;25.582;2023-02-28T08:30:45;101103.13;;;2.55;93.69
59767;BME280;46248;58.364;25.582;2023-02-28T08:34:10;101113.41;;;2.61;92.87
59767;BME280;46248;58.364;25.582;2023-02-28T08:37:36;101111.66;;;2.63;94.16
59767;BME280;46248;58.364;25.582;2023-02-28T08:40:59;101102.16;;;2.66;93.14
59767;BME280;46248;58.364;25.582;2023-02-28T08:44:23;101084.03;;;2.69;92.52
59767;BME280;46248;58.364;25.582;2023-02-28T08:47:46;101094.38;;;2.69;92.53
59767;BME280;46248;58.364;25.582;2023-02-28T08:51:12;101080.59;;;2.66;92.10
59767;BME280;46248;58.364;25.582;2023-02-28T08:54:37;101083.13;;;2.72;92.25
59767;BME280;46248;58.364;25.582;2023-02-28T08:58:00;101072.78;;;2.73;92.56
59767;BME280;46248;58.364;25.582;2023-02-28T09:01:25;101070.16;;;2.75;91.68
59767;BME280;46248;58.364;25.582;2023-02-28T09:04:51;101053.78;;;2.74;91.77
59767;BME280;46248;58.364;25.582;2023-02-28T09:08:14;101061.53;;;2.78;91.73
59767;BME280;46248;58.364;25.582;2023-02-28T09:11:39;101071.84;;;2.81;91.55
59767;BME280;46248;58.364;25.582;2023-02-28T09:15:03;101074.38;;;2.85;91.66
59767;BME280;46248;58.364;25.582;2023-02-28T09:18:26;101081.25;;;2.88;91.18
59767;BME280;46248;58.364;25.582;2023-02-28T09:21:49;101092.47;;;2.87;91.26
59767;BME280;46248;58.364;25.582;2023-02-28T09:25:13;101089.13;;;2.79;91.50
59767;BME280;46248;58.364;25.582;2023-02-28T09:28:38;101103.66;;;2.87;90.93
59767;BME280;46248;58.364;25.582;2023-02-28T09:32:01;101111.31;;;2.98;91.40
59767;BME280;46248;58.364;25.582;2023-02-28T09:35:27;101113.00;;;3.02;90.36
59767;BME280;46248;58.364;25.582;2023-02-28T09:38:51;101110.38;;;3.05;90.07
59767;BME280;46248;58.364;25.582;2023-02-28T09:42:21;101106.91;;;3.08;90.30
59767;BME280;46248;58.364;25.582;2023-02-28T09:45:52;101100.81;;;3.13;90.19
59767;BME280;46248;58.364;25.582;2023-02-28T09:49:22;101094.72;;;3.19;89.16
59767;BME280;46248;58.364;25.582;2023-02-28T09:52:51;101092.16;;;3.16;89.48
59767;BME280;46248;58.364;25.582;2023-02-28T09:56:21;101102.38;;;3.28;89.87
59767;BME280;46248;58.364;25.582;2023-02-28T09:59:58;101086.78;;;3.31;89.71
59767;BME280;46248;58.364;25.582;2023-02-28T10:03:32;101083.31;;;3.32;89.38
59767;BME280;46248;58.364;25.582;2023-02-28T10:06:59;101085.97;;;3.26;88.50
59767;BME280;46248;58.364;25.582;2023-02-28T10:10:28;101085.91;;;3.32;88.02
59767;BME280;46248;58.364;25.582;2023-02-28T10:13:58;101079.94;;;3.27;87.80
59767;BME280;46248;58.364;25.582;2023-02-28T10:17:26;101072.94;;;3.37;88.38
59767;BME280;46248;58.364;25.582;2023-02-28T10:21:06;101077.16;;;3.42;88.25
59767;BME280;46248;58.364;25.582;2023-02-28T10:24:34;101095.25;;;3.44;87.98
59767;BME280;46248;58.364;25.582;2023-02-28T10:28:01;101097.09;;;3.34;88.07
59767;BME280;46248;58.364;25.582;2023-02-28T10:31:29;101080.78;;;3.29;88.87
59767;BME280;46248;58.364;25.582;2023-02-28T10:34:56;101085.88;;;3.35;87.85
59767;BME280;46248;58.364;25.582;2023-02-28T10:38:24;101085.94;;;3.31;88.19
59767;BME280;46248;58.364;25.582;2023-02-28T10:41:47;101097.09;;;3.34;87.82
59767;BME280;46248;58.364;25.582;2023-02-28T10:45:15;101110.97;;;3.30;87.58
59767;BME280;46248;58.364;25.582;2023-02-28T10:48:41;101101.50;;;3.26;87.85
59767;BME280;46248;58.364;25.582;2023-02-28T10:52:09;101109.13;;;3.38;87.78
59767;BME280;46248;58.364;25.582;2023-02-28T10:55:36;101114.34;;;3.35;87.30
59767;BME280;46248;58.364;25.582;2023-02-28T10:59:02;101114.34;;;3.37;87.34
59767;BME280;46248;58.364;25.582;2023-02-28T11:02:31;101111.69;;;3.41;87.84
59767;BME280;46248;58.364;25.582;2023-02-28T11:05:57;101072.16;;;3.29;87.24
59767;BME280;46248;58.364;25.582;2023-02-28T11:09:24;101105.44;;;3.56;86.70
59767;BME280;46248;58.364;25.582;2023-02-28T11:12:56;101101.03;;;3.63;86.18
59767;BME280;46248;58.364;25.582;2023-02-28T11:16:22;101115.53;;;3.78;85.75
59767;BME280;46248;58.364;25.582;2023-02-28T11:19:57;101113.75;;;3.83;85.89
59767;BME280;46248;58.364;25.582;2023-02-28T11:23:25;101114.53;;;3.86;85.76
59767;BME280;46248;58.364;25.582;2023-02-28T11:26:51;101111.06;;;3.89;85.78
59767;BME280;46248;58.364;25.582;2023-02-28T11:30:34;101085.28;;;3.80;85.21
59767;BME280;46248;58.364;25.582;2023-02-28T11:33:58;101075.72;;;3.83;84.21
59767;BME280;46248;58.364;25.582;2023-02-28T11:37:31;101090.34;;;3.89;84.62
59767;BME280;46248;58.364;25.582;2023-02-28T11:41:16;101095.50;;;3.90;85.28
59767;BME280;46248;58.364;25.582;2023-02-28T11:44:55;101087.69;;;3.94;84.45
59767;BME280;46248;58.364;25.582;2023-02-28T11:48:25;101072.06;;;3.98;84.88
59767;BME280;46248;58.364;25.582;2023-02-28T11:51:54;101071.06;;;4.05;84.37
59767;BME280;46248;58.364;25.582;2023-02-28T11:55:26;101075.34;;;4.09;83.19
59767;BME280;46248;58.364;25.582;2023-02-28T11:58:56;101072.63;;;4.17;83.81
59767;BME280;46248;58.364;25.582;2023-02-28T12:02:28;101065.59;;;4.25;82.78
59767;BME280;46248;58.364;25.582;2023-02-28T12:06:01;101052.78;;;4.18;82.81
59767;BME280;46248;58.364;25.582;2023-02-28T12:09:41;101062.03;;;4.31;81.94
59767;BME280;46248;58.364;25.582;2023-02-28T12:13:15;101048.94;;;4.40;81.46
59767;BME280;46248;58.364;25.582;2023-02-28T12:16:50;101049.88;;;4.34;80.45
59767;BME280;46248;58.364;25.582;2023-02-28T12:20:22;101056.66;;;4.43;81.66
59767;BME280;46248;58.364;25.582;2023-02-28T12:24:11;101056.66;;;4.43;78.81
59767;BME280;46248;58.364;25.582;2023-02-28T12:27:40;101062.72;;;4.42;79.28
59767;BME280;46248;58.364;25.582;2023-02-28T12:31:08;101066.13;;;4.46;79.43
59767;BME280;46248;58.364;25.582;2023-02-28T12:34:36;101072.22;;;4.42;78.22
59767;BME280;46248;58.364;25.582;2023-02-28T12:38:04;101063.53;;;4.46;77.79
59767;BME280;46248;58.364;25.582;2023-02-28T12:41:36;101073.84;;;4.49;78.29
59767;BME280;46248;58.364;25.582;2023-02-28T12:45:07;101066.13;;;4.44;77.67
59767;BME280;46248;58.364;25.582;2023-02-28T12:48:37;101066.13;;;4.46;76.69
59767;BME280;46248;58.364;25.582;2023-02-28T12:52:03;101059.97;;;4.51;78.39
59767;BME280;46248;58.364;25.582;2023-02-28T12:55:33;101058.19;;;4.53;78.32
59767;BME280;46248;58.364;25.582;2023-02-28T12:59:02;101061.66;;;4.52;76.83
59767;BME280;46248;58.364;25.582;2023-02-28T13:06:45;101067.97;;;4.38;77.30
59767;BME280;46248;58.364;25.582;2023-02-28T13:10:18;101038.91;;;4.19;78.45
59767;BME280;46248;58.364;25.582;2023-02-28T13:13:45;101057.03;;;4.20;78.19
59767;BME280;46248;58.364;25.582;2023-02-28T13:17:17;101038.16;;;4.12;78.73
59767;BME280;46248;58.364;25.582;2023-02-28T13:20:47;101065.75;;;4.16;79.16
59767;BME280;46248;58.364;25.582;2023-02-28T13:24:37;101053.69;;;4.13;79.55
59767;BME280;46248;58.364;25.582;2023-02-28T13:28:02;101057.13;;;4.14;80.78
59767;BME280;46248;58.364;25.582;2023-02-28T13:31:26;101057.31;;;4.03;80.50
59767;BME280;46248;58.364;25.582;2023-02-28T13:35:17;101063.31;;;4.05;79.38
59767;BME280;46248;58.364;25.582;2023-02-28T13:38:57;101069.31;;;4.09;80.77
59767;BME280;46248;58.364;25.582;2023-02-28T13:42:30;101059.81;;;4.09;80.72
59767;BME280;46248;58.364;25.582;2023-02-28T13:46:10;101040.03;;;4.02;80.30
59767;BME280;46248;58.364;25.582;2023-02-28T13:49:34;101051.19;;;4.09;79.80
59767;BME280;46248;58.364;25.582;2023-02-28T13:57:11;101050.38;;;4.02;79.76
59767;BME280;46248;58.364;25.582;2023-02-28T14:00:52;101064.28;;;3.98;79.15
59767;BME280;46248;58.364;25.582;2023-02-28T14:08:20;101077.28;;;3.95;78.33
59767;BME280;46248;58.364;25.582;2023-02-28T14:11:44;101073.13;;;3.85;79.65
59767;BME280;46248;58.364;25.582;2023-02-28T14:15:28;101084.34;;;3.85;77.98
59767;BME280;46248;58.364;25.582;2023-02-28T14:19:00;101071.50;;;3.78;78.29
59767;BME280;46248;58.364;25.582;2023-02-28T14:22:47;101074.13;;;3.75;78.57
59767;BME280;46248;58.364;25.582;2023-02-28T14:26:25;101073.31;;;3.73;79.01
59767;BME280;46248;58.364;25.582;2023-02-28T14:34:00;101063.09;;;3.63;78.77
59767;BME280;46248;58.364;25.582;2023-02-28T14:37:27;101064.06;;;3.55;79.85
59767;BME280;46248;58.364;25.582;2023-02-28T14:40:55;101062.41;;;3.49;80.01
59767;BME280;46248;58.364;25.582;2023-02-28T14:44:20;101058.19;;;3.42;79.58
59767;BME280;46248;58.364;25.582;2023-02-28T14:47:43;101051.38;;;3.35;80.26
59767;BME280;46248;58.364;25.582;2023-02-28T14:51:09;101039.44;;;3.25;80.85
59767;BME280;46248;58.364;25.582;2023-02-28T14:54:32;101040.41;;;3.14;80.62
59767;BME280;46248;58.364;25.582;2023-02-28T14:57:57;101041.38;;;3.07;79.52
59767;BME280;46248;58.364;25.582;2023-02-28T15:01:23;101042.25;;;3.05;79.45
59767;BME280;46248;58.364;25.582;2023-02-28T15:04:55;101056.88;;;3.07;79.91
59767;BME280;46248;58.364;25.582;2023-02-28T15:08:20;101043.19;;;2.99;78.74
59767;BME280;46248;58.364;25.582;2023-02-28T15:11:46;101057.91;;;2.94;79.89
59767;BME280;46248;58.364;25.582;2023-02-28T15:15:15;101060.56;;;2.88;79.22
59767;BME280;46248;58.364;25.582;2023-02-28T15:18:44;101065.78;;;2.85;79.49
59767;BME280;46248;58.364;25.582;2023-02-28T15:22:13;101045.34;;;2.57;79.95
59767;BME280;46248;58.364;25.582;2023-02-28T15:25:41;101067.56;;;2.77;80.74
59767;BME280;46248;58.364;25.582;2023-02-28T15:29:07;101072.81;;;2.70;80.65
59767;BME280;46248;58.364;25.582;2023-02-28T15:32:32;101063.44;;;2.57;81.17
59767;BME280;46248;58.364;25.582;2023-02-28T15:36:11;101078.91;;;2.60;80.98
59767;BME280;46248;58.364;25.582;2023-02-28T15:39:42;101054.09;;;2.44;81.02
59767;BME280;46248;58.364;25.582;2023-02-28T15:43:14;101083.31;;;2.52;81.96
59767;BME280;46248;58.364;25.582;2023-02-28T15:46:37;101079.88;;;2.50;81.99
59767;BME280;46248;58.364;25.582;2023-02-28T15:50:04;101082.53;;;2.45;81.38
59767;BME280;46248;58.364;25.582;2023-02-28T15:53:32;101089.44;;;2.43;81.18
59767;BME280;46248;58.364;25.582;2023-02-28T15:56:57;101098.91;;;2.41;81.43
59767;BME280;46248;58.364;25.582;2023-02-28T16:00:24;101105.84;;;2.39;82.03
59767;BME280;46248;58.364;25.582;2023-02-28T16:03:49;101104.94;;;2.42;81.87
59767;BME280;46248;58.364;25.582;2023-02-28T16:07:12;101106.69;;;2.38;82.66
59767;BME280;46248;58.364;25.582;2023-02-28T16:10:36;101113.59;;;2.38;82.94
59767;BME280;46248;58.364;25.582;2023-02-28T16:13:59;101118.78;;;2.35;82.75
59767;BME280;46248;58.364;25.582;2023-02-28T16:17:27;101129.16;;;2.33;83.45
59767;BME280;46248;58.364;25.582;2023-02-28T16:20:51;101130.00;;;2.34;83.67
59767;BME280;46248;58.364;25.582;2023-02-28T16:24:14;101128.31;;;2.26;83.33
59767;BME280;46248;58.364;25.582;2023-02-28T16:27:37;101139.50;;;2.28;83.88
59767;BME280;46248;58.364;25.582;2023-02-28T16:31:02;101143.84;;;2.25;84.06
59767;BME280;46248;58.364;25.582;2023-02-28T16:34:27;101138.72;;;2.17;84.53
59767;BME280;46248;58.364;25.582;2023-02-28T16:37:51;101145.66;;;2.12;84.82
59767;BME280;46248;58.364;25.582;2023-02-28T16:41:18;101139.69;;;1.99;84.63
59767;BME280;46248;58.364;25.582;2023-02-28T16:44:42;101157.75;;;2.07;85.35
59767;BME280;46248;58.364;25.582;2023-02-28T16:48:05;101163.81;;;2.03;84.97
59767;BME280;46248;58.364;25.582;2023-02-28T16:51:29;101167.22;;;2.02;85.28
59767;BME280;46248;58.364;25.582;2023-02-28T16:54:55;101156.09;;;1.95;85.43
59767;BME280;46248;58.364;25.582;2023-02-28T16:58:18;101130.38;;;1.74;85.34
59767;BME280;46248;58.364;25.582;2023-02-28T17:01:43;101171.63;;;1.91;85.50
59767;BME280;46248;58.364;25.582;2023-02-28T17:05:08;101160.47;;;1.81;85.34
59767;BME280;46248;58.364;25.582;2023-02-28T17:08:32;101169.09;;;1.75;84.94
59767;BME280;46248;58.364;25.582;2023-02-28T17:11:56;101172.56;;;1.73;85.20
59767;BME280;46248;58.364;25.582;2023-02-28T17:15:21;101173.44;;;1.70;85.92
59767;BME280;46248;58.364;25.582;2023-02-28T17:18:44;101159.69;;;1.59;86.26
59767;BME280;46248;58.364;25.582;2023-02-28T17:22:08;101180.34;;;1.60;86.09
59767;BME280;46248;58.364;25.582;2023-02-28T17:25:33;101170.94;;;1.46;86.37
59767;BME280;46248;58.364;25.582;2023-02-28T17:28:57;101173.53;;;1.40;86.09
59767;BME280;46248;58.364;25.582;2023-02-28T17:32:20;101184.69;;;1.42;86.27
59767;BME280;46248;58.364;25.582;2023-02-28T17:35:44;101172.69;;;1.34;85.99
59767;BME280;46248;58.364;25.582;2023-02-28T17:39:09;101182.16;;;1.34;85.82
59767;BME280;46248;58.364;25.582;2023-02-28T17:42:36;101176.16;;;1.26;85.27
59767;BME280;46248;58.364;25.582;2023-02-28T17:46:00;101186.47;;;1.20;84.35
59767;BME280;46248;58.364;25.582;2023-02-28T17:49:23;101193.38;;;1.22;84.13
59767;BME280;46248;58.364;25.582;2023-02-28T17:52:47;101193.38;;;1.16;83.90
59767;BME280;46248;58.364;25.582;2023-02-28T17:56:13;101194.22;;;1.17;83.65
59767;BME280;46248;58.364;25.582;2023-02-28T17:59:38;101195.94;;;1.14;83.13
59767;BME280;46248;58.364;25.582;2023-02-28T18:03:04;101182.22;;;1.06;82.53
59767;BME280;46248;58.364;25.582;2023-02-28T18:06:30;101185.66;;;1.04;81.74
59767;BME280;46248;58.364;25.582;2023-02-28T18:09:56;101162.47;;;0.84;81.64